sensor_id;sensor_type;location;lat;lon;timestamp;P1;durP1;ratioP1;P2;durP2;ratioP2
34236;SDS011;20501;45.956;13.632;2024-02-26T00:00:27;9.25;;;4.65;;
34236;SDS011;20501;45.956;13.632;2024-02-26T00:02:54;11.48;;;4.10;;
34236;SDS011;20501;45.956;13.632;2024-02-26T00:05:19;6.88;;;4.13;;
34236;SDS011;20501;45.956;13.632;2024-02-26T00:07:45;9.10;;;4.05;;
34236;SDS011;20501;45.956;13.632;2024-02-26T00:10:10;16.58;;;3.75;;
34236;SDS011;20501;45.956;13.632;2024-02-26T00:12:36;6.03;;;3.58;;
34236;SDS011;20501;45.956;13.632;2024-02-26T00:15:01;11.80;;;3.90;;
34236;SDS011;20501;45.956;13.632;2024-02-26T00:17:27;8.68;;;4.03;;
34236;SDS011;20501;45.956;13.632;2024-02-26T00:19:52;7.50;;;3.85;;
34236;SDS011;20501;45.956;13.632;2024-02-26T00:22:18;3.63;;;2.95;;
34236;SDS011;20501;45.956;13.632;2024-02-26T00:24:43;5.55;;;3.38;;
34236;SDS011;20501;45.956;13.632;2024-02-26T00:27:09;13.50;;;3.92;;
34236;SDS011;20501;45.956;13.632;2024-02-26T00:29:34;8.80;;;3.25;;
34236;SDS011;20501;45.956;13.632;2024-02-26T00:32:00;8.82;;;3.53;;
34236;SDS011;20501;45.956;13.632;2024-02-26T00:34:25;8.93;;;3.72;;
34236;SDS011;20501;45.956;13.632;2024-02-26T00:36:50;11.80;;;3.53;;
34236;SDS011;20501;45.956;13.632;2024-02-26T00:39:16;12.48;;;4.15;;
34236;SDS011;20501;45.956;13.632;2024-02-26T00:41:41;22.92;;;7.25;;
34236;SDS011;20501;45.956;13.632;2024-02-26T00:44:07;24.25;;;8.52;;
34236;SDS011;20501;45.956;13.632;2024-02-26T00:46:32;20.35;;;8.88;;
34236;SDS011;20501;45.956;13.632;2024-02-26T00:48:58;20.55;;;9.32;;
34236;SDS011;20501;45.956;13.632;2024-02-26T00:51:23;18.70;;;8.68;;
34236;SDS011;20501;45.956;13.632;2024-02-26T00:53:49;27.10;;;10.90;;
34236;SDS011;20501;45.956;13.632;2024-02-26T00:56:14;27.48;;;10.48;;
34236;SDS011;20501;45.956;13.632;2024-02-26T00:58:40;26.80;;;10.75;;
34236;SDS011;20501;45.956;13.632;2024-02-26T01:01:05;26.92;;;10.30;;
34236;SDS011;20501;45.956;13.632;2024-02-26T01:03:30;21.33;;;11.45;;
34236;SDS011;20501;45.956;13.632;2024-02-26T01:05:56;25.17;;;10.88;;
34236;SDS011;20501;45.956;13.632;2024-02-26T01:08:21;30.88;;;11.32;;
34236;SDS011;20501;45.956;13.632;2024-02-26T01:10:47;31.55;;;12.27;;
34236;SDS011;20501;45.956;13.632;2024-02-26T01:13:12;24.50;;;11.57;;
34236;SDS011;20501;45.956;13.632;2024-02-26T01:15:38;23.60;;;11.23;;
34236;SDS011;20501;45.956;13.632;2024-02-26T01:18:03;24.23;;;10.77;;
34236;SDS011;20501;45.956;13.632;2024-02-26T01:20:29;21.75;;;11.15;;
34236;SDS011;20501;45.956;13.632;2024-02-26T01:22:54;21.42;;;10.75;;
34236;SDS011;20501;45.956;13.632;2024-02-26T01:25:19;24.02;;;11.38;;
34236;SDS011;20501;45.956;13.632;2024-02-26T01:27:45;26.95;;;11.18;;
34236;SDS011;20501;45.956;13.632;2024-02-26T01:30:10;20.90;;;10.50;;
34236;SDS011;20501;45.956;13.632;2024-02-26T01:32:36;22.75;;;9.57;;
34236;SDS011;20501;45.956;13.632;2024-02-26T01:35:02;21.20;;;9.68;;
34236;SDS011;20501;45.956;13.632;2024-02-26T01:37:35;21.25;;;9.90;;
34236;SDS011;20501;45.956;13.632;2024-02-26T01:40:01;18.17;;;8.67;;
34236;SDS011;20501;45.956;13.632;2024-02-26T01:42:29;18.15;;;7.78;;
34236;SDS011;20501;45.956;13.632;2024-02-26T01:44:55;20.27;;;8.35;;
34236;SDS011;20501;45.956;13.632;2024-02-26T01:47:21;19.52;;;8.07;;
34236;SDS011;20501;45.956;13.632;2024-02-26T01:49:47;15.38;;;8.35;;
34236;SDS011;20501;45.956;13.632;2024-02-26T01:52:13;16.20;;;7.90;;
34236;SDS011;20501;45.956;13.632;2024-02-26T01:54:39;17.60;;;8.75;;
34236;SDS011;20501;45.956;13.632;2024-02-26T01:57:06;22.20;;;8.48;;
34236;SDS011;20501;45.956;13.632;2024-02-26T01:59:33;22.48;;;7.88;;
34236;SDS011;20501;45.956;13.632;2024-02-26T02:02:00;18.02;;;8.65;;
34236;SDS011;20501;45.956;13.632;2024-02-26T02:06:52;22.70;;;7.35;;
34236;SDS011;20501;45.956;13.632;2024-02-26T02:09:19;19.73;;;7.43;;
34236;SDS011;20501;45.956;13.632;2024-02-26T02:11:45;15.73;;;7.72;;
34236;SDS011;20501;45.956;13.632;2024-02-26T02:14:11;18.98;;;8.18;;
34236;SDS011;20501;45.956;13.632;2024-02-26T02:16:37;18.63;;;7.53;;
34236;SDS011;20501;45.956;13.632;2024-02-26T02:19:02;18.85;;;7.65;;
34236;SDS011;20501;45.956;13.632;2024-02-26T02:21:28;22.42;;;7.68;;
34236;SDS011;20501;45.956;13.632;2024-02-26T02:23:53;18.33;;;7.70;;
34236;SDS011;20501;45.956;13.632;2024-02-26T02:26:19;21.60;;;7.78;;
34236;SDS011;20501;45.956;13.632;2024-02-26T02:28:45;12.25;;;7.35;;
34236;SDS011;20501;45.956;13.632;2024-02-26T02:31:12;17.58;;;8.20;;
34236;SDS011;20501;45.956;13.632;2024-02-26T02:33:38;10.65;;;5.38;;
34236;SDS011;20501;45.956;13.632;2024-02-26T02:36:03;12.02;;;6.30;;
34236;SDS011;20501;45.956;13.632;2024-02-26T02:38:29;7.20;;;3.83;;
34236;SDS011;20501;45.956;13.632;2024-02-26T02:40:55;7.72;;;3.65;;
34236;SDS011;20501;45.956;13.632;2024-02-26T02:43:21;10.50;;;4.00;;
34236;SDS011;20501;45.956;13.632;2024-02-26T02:45:46;7.75;;;3.67;;
34236;SDS011;20501;45.956;13.632;2024-02-26T02:48:12;18.58;;;5.35;;
34236;SDS011;20501;45.956;13.632;2024-02-26T02:50:38;13.40;;;5.10;;
34236;SDS011;20501;45.956;13.632;2024-02-26T02:53:03;13.10;;;5.43;;
34236;SDS011;20501;45.956;13.632;2024-02-26T02:55:29;13.43;;;5.95;;
34236;SDS011;20501;45.956;13.632;2024-02-26T02:57:54;8.20;;;5.13;;
34236;SDS011;20501;45.956;13.632;2024-02-26T03:00:20;9.70;;;5.22;;
34236;SDS011;20501;45.956;13.632;2024-02-26T03:02:48;15.50;;;6.43;;
34236;SDS011;20501;45.956;13.632;2024-02-26T03:05:14;13.37;;;6.50;;
34236;SDS011;20501;45.956;13.632;2024-02-26T03:07:39;15.32;;;7.78;;
34236;SDS011;20501;45.956;13.632;2024-02-26T03:10:04;14.32;;;7.05;;
34236;SDS011;20501;45.956;13.632;2024-02-26T03:12:30;15.82;;;6.95;;
34236;SDS011;20501;45.956;13.632;2024-02-26T03:14:56;17.70;;;7.32;;
34236;SDS011;20501;45.956;13.632;2024-02-26T03:17:21;23.38;;;6.97;;
34236;SDS011;20501;45.956;13.632;2024-02-26T03:19:49;12.95;;;7.13;;
34236;SDS011;20501;45.956;13.632;2024-02-26T03:22:18;15.32;;;7.40;;
34236;SDS011;20501;45.956;13.632;2024-02-26T03:24:43;15.50;;;7.03;;
34236;SDS011;20501;45.956;13.632;2024-02-26T03:27:09;15.93;;;6.88;;
34236;SDS011;20501;45.956;13.632;2024-02-26T03:29:35;12.88;;;6.22;;
34236;SDS011;20501;45.956;13.632;2024-02-26T03:32:02;11.32;;;6.60;;
34236;SDS011;20501;45.956;13.632;2024-02-26T03:34:28;11.90;;;6.03;;
34236;SDS011;20501;45.956;13.632;2024-02-26T03:36:53;10.55;;;4.28;;
34236;SDS011;20501;45.956;13.632;2024-02-26T03:39:19;10.32;;;4.28;;
34236;SDS011;20501;45.956;13.632;2024-02-26T03:41:44;6.65;;;3.78;;
34236;SDS011;20501;45.956;13.632;2024-02-26T03:44:09;4.57;;;3.10;;
34236;SDS011;20501;45.956;13.632;2024-02-26T03:46:35;9.70;;;4.15;;
34236;SDS011;20501;45.956;13.632;2024-02-26T03:49:00;7.57;;;3.25;;
34236;SDS011;20501;45.956;13.632;2024-02-26T03:51:26;6.10;;;3.33;;
34236;SDS011;20501;45.956;13.632;2024-02-26T03:53:56;8.77;;;3.50;;
34236;SDS011;20501;45.956;13.632;2024-02-26T03:56:25;8.43;;;3.08;;
34236;SDS011;20501;45.956;13.632;2024-02-26T03:58:51;7.07;;;3.33;;
34236;SDS011;20501;45.956;13.632;2024-02-26T04:01:16;12.93;;;3.40;;
34236;SDS011;20501;45.956;13.632;2024-02-26T04:03:42;9.38;;;3.05;;
34236;SDS011;20501;45.956;13.632;2024-02-26T04:06:11;9.88;;;3.40;;
34236;SDS011;20501;45.956;13.632;2024-02-26T04:08:39;4.75;;;3.10;;
34236;SDS011;20501;45.956;13.632;2024-02-26T04:11:05;11.93;;;3.60;;
34236;SDS011;20501;45.956;13.632;2024-02-26T04:13:32;6.32;;;3.13;;
34236;SDS011;20501;45.956;13.632;2024-02-26T04:16:00;3.95;;;2.83;;
34236;SDS011;20501;45.956;13.632;2024-02-26T04:18:29;6.03;;;3.15;;
34236;SDS011;20501;45.956;13.632;2024-02-26T04:20:54;7.72;;;2.92;;
34236;SDS011;20501;45.956;13.632;2024-02-26T04:23:19;4.68;;;2.67;;
34236;SDS011;20501;45.956;13.632;2024-02-26T04:25:45;5.93;;;3.53;;
34236;SDS011;20501;45.956;13.632;2024-02-26T04:28:10;7.40;;;3.20;;
34236;SDS011;20501;45.956;13.632;2024-02-26T04:30:37;8.50;;;3.47;;
34236;SDS011;20501;45.956;13.632;2024-02-26T04:33:03;6.03;;;3.15;;
34236;SDS011;20501;45.956;13.632;2024-02-26T04:35:28;4.95;;;3.00;;
34236;SDS011;20501;45.956;13.632;2024-02-26T04:37:54;4.22;;;2.50;;
34236;SDS011;20501;45.956;13.632;2024-02-26T04:40:19;6.13;;;2.70;;
34236;SDS011;20501;45.956;13.632;2024-02-26T04:42:45;7.05;;;2.78;;
34236;SDS011;20501;45.956;13.632;2024-02-26T04:45:10;7.45;;;3.28;;
34236;SDS011;20501;45.956;13.632;2024-02-26T04:47:36;5.63;;;2.88;;
34236;SDS011;20501;45.956;13.632;2024-02-26T04:50:01;6.22;;;3.13;;
34236;SDS011;20501;45.956;13.632;2024-02-26T04:52:27;5.53;;;3.22;;
34236;SDS011;20501;45.956;13.632;2024-02-26T04:54:52;5.30;;;3.05;;
34236;SDS011;20501;45.956;13.632;2024-02-26T04:57:18;8.27;;;3.22;;
34236;SDS011;20501;45.956;13.632;2024-02-26T04:59:43;5.85;;;3.38;;
34236;SDS011;20501;45.956;13.632;2024-02-26T05:04:36;7.43;;;3.25;;
34236;SDS011;20501;45.956;13.632;2024-02-26T05:07:01;8.63;;;3.45;;
34236;SDS011;20501;45.956;13.632;2024-02-26T05:09:27;5.25;;;3.50;;
34236;SDS011;20501;45.956;13.632;2024-02-26T05:11:52;7.82;;;3.15;;
34236;SDS011;20501;45.956;13.632;2024-02-26T05:14:18;5.15;;;2.67;;
34236;SDS011;20501;45.956;13.632;2024-02-26T05:16:43;8.32;;;3.15;;
34236;SDS011;20501;45.956;13.632;2024-02-26T05:19:09;8.60;;;3.50;;
34236;SDS011;20501;45.956;13.632;2024-02-26T05:21:34;6.95;;;2.67;;
34236;SDS011;20501;45.956;13.632;2024-02-26T05:24:00;3.58;;;2.53;;
34236;SDS011;20501;45.956;13.632;2024-02-26T05:26:25;5.43;;;2.50;;
34236;SDS011;20501;45.956;13.632;2024-02-26T05:28:51;6.43;;;3.00;;
34236;SDS011;20501;45.956;13.632;2024-02-26T05:31:17;5.07;;;3.10;;
34236;SDS011;20501;45.956;13.632;2024-02-26T05:33:43;8.40;;;3.47;;
34236;SDS011;20501;45.956;13.632;2024-02-26T05:36:09;7.50;;;2.90;;
34236;SDS011;20501;45.956;13.632;2024-02-26T05:38:34;8.48;;;3.42;;
34236;SDS011;20501;45.956;13.632;2024-02-26T05:41:00;4.35;;;2.88;;
34236;SDS011;20501;45.956;13.632;2024-02-26T05:43:26;9.57;;;3.22;;
34236;SDS011;20501;45.956;13.632;2024-02-26T05:45:52;6.25;;;2.88;;
34236;SDS011;20501;45.956;13.632;2024-02-26T05:48:18;7.83;;;3.40;;
34236;SDS011;20501;45.956;13.632;2024-02-26T05:50:47;6.10;;;3.00;;
34236;SDS011;20501;45.956;13.632;2024-02-26T05:53:13;5.45;;;3.35;;
34236;SDS011;20501;45.956;13.632;2024-02-26T05:55:38;7.43;;;3.30;;
34236;SDS011;20501;45.956;13.632;2024-02-26T05:58:04;4.22;;;3.30;;
34236;SDS011;20501;45.956;13.632;2024-02-26T06:00:30;4.65;;;3.50;;
34236;SDS011;20501;45.956;13.632;2024-02-26T06:02:55;8.43;;;3.22;;
34236;SDS011;20501;45.956;13.632;2024-02-26T06:05:20;6.68;;;3.90;;
34236;SDS011;20501;45.956;13.632;2024-02-26T06:07:46;7.75;;;3.55;;
34236;SDS011;20501;45.956;13.632;2024-02-26T06:10:12;8.50;;;3.80;;
34236;SDS011;20501;45.956;13.632;2024-02-26T06:12:39;8.90;;;4.20;;
34236;SDS011;20501;45.956;13.632;2024-02-26T06:15:05;11.60;;;4.90;;
34236;SDS011;20501;45.956;13.632;2024-02-26T06:17:31;8.07;;;3.72;;
34236;SDS011;20501;45.956;13.632;2024-02-26T06:19:56;7.63;;;3.72;;
34236;SDS011;20501;45.956;13.632;2024-02-26T06:22:24;8.20;;;3.38;;
34236;SDS011;20501;45.956;13.632;2024-02-26T06:24:50;10.60;;;4.18;;
34236;SDS011;20501;45.956;13.632;2024-02-26T06:27:15;8.68;;;3.38;;
34236;SDS011;20501;45.956;13.632;2024-02-26T06:29:40;8.52;;;4.45;;
34236;SDS011;20501;45.956;13.632;2024-02-26T06:32:06;9.63;;;4.03;;
34236;SDS011;20501;45.956;13.632;2024-02-26T06:34:31;24.42;;;4.95;;
34236;SDS011;20501;45.956;13.632;2024-02-26T06:36:57;11.23;;;4.13;;
34236;SDS011;20501;45.956;13.632;2024-02-26T06:39:22;13.00;;;4.00;;
34236;SDS011;20501;45.956;13.632;2024-02-26T06:41:48;13.38;;;4.40;;
34236;SDS011;20501;45.956;13.632;2024-02-26T06:44:13;5.15;;;3.47;;
34236;SDS011;20501;45.956;13.632;2024-02-26T06:46:39;7.72;;;3.58;;
34236;SDS011;20501;45.956;13.632;2024-02-26T06:49:05;14.10;;;3.75;;
34236;SDS011;20501;45.956;13.632;2024-02-26T06:51:30;13.48;;;3.53;;
34236;SDS011;20501;45.956;13.632;2024-02-26T06:53:55;6.45;;;3.03;;
34236;SDS011;20501;45.956;13.632;2024-02-26T06:56:21;12.75;;;3.88;;
34236;SDS011;20501;45.956;13.632;2024-02-26T06:58:46;8.20;;;3.83;;
34236;SDS011;20501;45.956;13.632;2024-02-26T07:01:12;8.63;;;3.63;;
34236;SDS011;20501;45.956;13.632;2024-02-26T07:03:39;7.05;;;3.60;;
34236;SDS011;20501;45.956;13.632;2024-02-26T07:06:05;8.35;;;3.67;;
34236;SDS011;20501;45.956;13.632;2024-02-26T07:08:31;7.80;;;4.03;;
34236;SDS011;20501;45.956;13.632;2024-02-26T07:10:57;20.67;;;5.20;;
34236;SDS011;20501;45.956;13.632;2024-02-26T07:13:22;6.30;;;3.63;;
34236;SDS011;20501;45.956;13.632;2024-02-26T07:15:48;7.97;;;3.35;;
34236;SDS011;20501;45.956;13.632;2024-02-26T07:18:13;10.13;;;3.72;;
34236;SDS011;20501;45.956;13.632;2024-02-26T07:20:39;14.57;;;5.47;;
34236;SDS011;20501;45.956;13.632;2024-02-26T07:23:04;17.02;;;6.70;;
34236;SDS011;20501;45.956;13.632;2024-02-26T07:25:30;15.35;;;5.75;;
34236;SDS011;20501;45.956;13.632;2024-02-26T07:27:55;11.55;;;5.90;;
34236;SDS011;20501;45.956;13.632;2024-02-26T07:30:21;10.88;;;4.53;;
34236;SDS011;20501;45.956;13.632;2024-02-26T07:32:46;11.27;;;5.40;;
34236;SDS011;20501;45.956;13.632;2024-02-26T07:35:11;13.35;;;5.28;;
34236;SDS011;20501;45.956;13.632;2024-02-26T07:37:37;12.82;;;5.82;;
34236;SDS011;20501;45.956;13.632;2024-02-26T07:40:03;17.35;;;5.97;;
34236;SDS011;20501;45.956;13.632;2024-02-26T07:42:28;8.70;;;4.78;;
34236;SDS011;20501;45.956;13.632;2024-02-26T07:44:54;8.25;;;4.30;;
34236;SDS011;20501;45.956;13.632;2024-02-26T07:47:20;9.85;;;3.80;;
34236;SDS011;20501;45.956;13.632;2024-02-26T07:49:46;7.27;;;3.87;;
34236;SDS011;20501;45.956;13.632;2024-02-26T07:52:11;7.45;;;3.70;;
34236;SDS011;20501;45.956;13.632;2024-02-26T07:54:36;7.75;;;3.47;;
34236;SDS011;20501;45.956;13.632;2024-02-26T07:57:02;6.60;;;3.45;;
34236;SDS011;20501;45.956;13.632;2024-02-26T07:59:30;6.22;;;3.45;;
34236;SDS011;20501;45.956;13.632;2024-02-26T08:01:56;6.80;;;3.05;;
34236;SDS011;20501;45.956;13.632;2024-02-26T08:04:22;8.77;;;3.45;;
34236;SDS011;20501;45.956;13.632;2024-02-26T08:06:47;7.47;;;3.15;;
34236;SDS011;20501;45.956;13.632;2024-02-26T08:09:12;5.40;;;3.28;;
34236;SDS011;20501;45.956;13.632;2024-02-26T08:11:38;6.95;;;3.03;;
34236;SDS011;20501;45.956;13.632;2024-02-26T08:14:04;7.00;;;4.10;;
34236;SDS011;20501;45.956;13.632;2024-02-26T08:16:29;8.25;;;4.07;;
34236;SDS011;20501;45.956;13.632;2024-02-26T08:18:55;5.07;;;3.13;;
34236;SDS011;20501;45.956;13.632;2024-02-26T08:21:20;10.98;;;3.15;;
34236;SDS011;20501;45.956;13.632;2024-02-26T08:23:46;10.18;;;3.05;;
34236;SDS011;20501;45.956;13.632;2024-02-26T08:26:11;9.48;;;3.20;;
34236;SDS011;20501;45.956;13.632;2024-02-26T08:28:37;7.85;;;3.47;;
34236;SDS011;20501;45.956;13.632;2024-02-26T08:31:03;4.43;;;2.67;;
34236;SDS011;20501;45.956;13.632;2024-02-26T08:33:28;7.75;;;3.90;;
34236;SDS011;20501;45.956;13.632;2024-02-26T08:35:54;6.80;;;3.10;;
34236;SDS011;20501;45.956;13.632;2024-02-26T08:38:19;8.75;;;3.92;;
34236;SDS011;20501;45.956;13.632;2024-02-26T08:40:45;7.30;;;3.63;;
34236;SDS011;20501;45.956;13.632;2024-02-26T08:43:10;7.07;;;3.80;;
34236;SDS011;20501;45.956;13.632;2024-02-26T08:45:36;11.90;;;4.20;;
34236;SDS011;20501;45.956;13.632;2024-02-26T08:48:02;10.60;;;4.00;;
34236;SDS011;20501;45.956;13.632;2024-02-26T08:50:28;7.43;;;4.00;;
34236;SDS011;20501;45.956;13.632;2024-02-26T08:52:53;7.03;;;4.78;;
34236;SDS011;20501;45.956;13.632;2024-02-26T08:55:19;15.02;;;7.55;;
34236;SDS011;20501;45.956;13.632;2024-02-26T08:57:44;26.45;;;8.85;;
34236;SDS011;20501;45.956;13.632;2024-02-26T09:00:10;22.17;;;9.88;;
34236;SDS011;20501;45.956;13.632;2024-02-26T09:02:36;19.70;;;9.90;;
34236;SDS011;20501;45.956;13.632;2024-02-26T09:05:04;18.17;;;10.48;;
34236;SDS011;20501;45.956;13.632;2024-02-26T09:07:30;19.35;;;9.73;;
34236;SDS011;20501;45.956;13.632;2024-02-26T09:09:56;16.63;;;9.90;;
34236;SDS011;20501;45.956;13.632;2024-02-26T09:12:21;17.25;;;9.65;;
34236;SDS011;20501;45.956;13.632;2024-02-26T09:14:47;18.33;;;9.00;;
34236;SDS011;20501;45.956;13.632;2024-02-26T09:17:12;18.65;;;9.48;;
34236;SDS011;20501;45.956;13.632;2024-02-26T09:19:38;10.95;;;6.13;;
34236;SDS011;20501;45.956;13.632;2024-02-26T09:22:04;16.10;;;6.10;;
34236;SDS011;20501;45.956;13.632;2024-02-26T09:24:29;10.85;;;6.50;;
34236;SDS011;20501;45.956;13.632;2024-02-26T09:26:55;16.17;;;6.68;;
34236;SDS011;20501;45.956;13.632;2024-02-26T09:29:20;11.65;;;5.65;;
34236;SDS011;20501;45.956;13.632;2024-02-26T09:31:46;10.48;;;5.57;;
34236;SDS011;20501;45.956;13.632;2024-02-26T09:34:14;9.77;;;5.22;;
34236;SDS011;20501;45.956;13.632;2024-02-26T09:36:39;7.60;;;4.15;;
34236;SDS011;20501;45.956;13.632;2024-02-26T09:39:05;10.40;;;4.32;;
34236;SDS011;20501;45.956;13.632;2024-02-26T09:43:57;9.63;;;4.20;;
34236;SDS011;20501;45.956;13.632;2024-02-26T09:58:30;9.75;;;4.45;;
34236;SDS011;20501;45.956;13.632;2024-02-26T10:00:56;12.95;;;4.13;;
34236;SDS011;20501;45.956;13.632;2024-02-26T10:03:28;7.20;;;3.13;;
34236;SDS011;20501;45.956;13.632;2024-02-26T10:05:59;8.10;;;3.33;;
34236;SDS011;20501;45.956;13.632;2024-02-26T10:08:27;9.68;;;3.85;;
34236;SDS011;20501;45.956;13.632;2024-02-26T10:10:54;12.05;;;3.15;;
34236;SDS011;20501;45.956;13.632;2024-02-26T10:13:19;3.85;;;3.03;;
34236;SDS011;20501;45.956;13.632;2024-02-26T10:15:45;15.18;;;3.53;;
34236;SDS011;20501;45.956;13.632;2024-02-26T10:18:11;7.13;;;3.03;;
34236;SDS011;20501;45.956;13.632;2024-02-26T10:20:36;6.93;;;2.90;;
34236;SDS011;20501;45.956;13.632;2024-02-26T10:23:02;11.13;;;3.55;;
34236;SDS011;20501;45.956;13.632;2024-02-26T10:25:28;8.73;;;3.00;;
34236;SDS011;20501;45.956;13.632;2024-02-26T10:27:56;7.88;;;3.53;;
34236;SDS011;20501;45.956;13.632;2024-02-26T10:30:26;8.48;;;3.30;;
34236;SDS011;20501;45.956;13.632;2024-02-26T10:32:52;11.20;;;4.13;;
34236;SDS011;20501;45.956;13.632;2024-02-26T10:35:18;11.73;;;4.53;;
34236;SDS011;20501;45.956;13.632;2024-02-26T10:37:47;7.28;;;3.75;;
34236;SDS011;20501;45.956;13.632;2024-02-26T10:40:14;10.98;;;3.45;;
34236;SDS011;20501;45.956;13.632;2024-02-26T10:42:41;5.75;;;3.42;;
34236;SDS011;20501;45.956;13.632;2024-02-26T10:45:07;10.05;;;3.80;;
34236;SDS011;20501;45.956;13.632;2024-02-26T10:47:37;8.77;;;4.03;;
34236;SDS011;20501;45.956;13.632;2024-02-26T10:50:03;7.57;;;2.70;;
34236;SDS011;20501;45.956;13.632;2024-02-26T10:52:34;18.73;;;3.63;;
34236;SDS011;20501;45.956;13.632;2024-02-26T10:55:04;4.72;;;1.95;;
34236;SDS011;20501;45.956;13.632;2024-02-26T10:57:33;9.43;;;2.63;;
34236;SDS011;20501;45.956;13.632;2024-02-26T11:00:03;8.15;;;2.95;;
34236;SDS011;20501;45.956;13.632;2024-02-26T11:02:31;8.88;;;2.42;;
34236;SDS011;20501;45.956;13.632;2024-02-26T11:04:58;5.70;;;2.20;;
34236;SDS011;20501;45.956;13.632;2024-02-26T11:07:27;5.85;;;3.20;;
34236;SDS011;20501;45.956;13.632;2024-02-26T11:09:54;7.63;;;3.00;;
34236;SDS011;20501;45.956;13.632;2024-02-26T11:12:20;5.47;;;3.30;;
34236;SDS011;20501;45.956;13.632;2024-02-26T11:14:47;4.32;;;2.95;;
34236;SDS011;20501;45.956;13.632;2024-02-26T11:17:16;10.82;;;3.63;;
34236;SDS011;20501;45.956;13.632;2024-02-26T11:19:44;7.28;;;3.40;;
34236;SDS011;20501;45.956;13.632;2024-02-26T11:22:11;6.20;;;3.03;;
34236;SDS011;20501;45.956;13.632;2024-02-26T11:24:36;11.77;;;3.40;;
34236;SDS011;20501;45.956;13.632;2024-02-26T11:27:06;8.93;;;3.28;;
34236;SDS011;20501;45.956;13.632;2024-02-26T11:29:38;8.68;;;2.80;;
34236;SDS011;20501;45.956;13.632;2024-02-26T11:32:08;6.07;;;3.33;;
34236;SDS011;20501;45.956;13.632;2024-02-26T11:34:35;7.47;;;3.30;;
34236;SDS011;20501;45.956;13.632;2024-02-26T11:37:13;8.85;;;2.90;;
34236;SDS011;20501;45.956;13.632;2024-02-26T11:39:40;6.10;;;2.90;;
34236;SDS011;20501;45.956;13.632;2024-02-26T11:42:06;9.73;;;2.88;;
34236;SDS011;20501;45.956;13.632;2024-02-26T11:44:38;7.20;;;3.35;;
34236;SDS011;20501;45.956;13.632;2024-02-26T11:47:12;5.38;;;2.85;;
34236;SDS011;20501;45.956;13.632;2024-02-26T11:49:48;5.43;;;2.83;;
34236;SDS011;20501;45.956;13.632;2024-02-26T11:52:14;6.85;;;2.45;;
34236;SDS011;20501;45.956;13.632;2024-02-26T12:00:14;9.85;;;3.35;;
34236;SDS011;20501;45.956;13.632;2024-02-26T12:02:51;8.38;;;2.90;;
34236;SDS011;20501;45.956;13.632;2024-02-26T12:05:31;11.57;;;2.97;;
34236;SDS011;20501;45.956;13.632;2024-02-26T12:10:30;8.05;;;2.83;;
34236;SDS011;20501;45.956;13.632;2024-02-26T12:13:03;7.38;;;3.45;;
34236;SDS011;20501;45.956;13.632;2024-02-26T12:16:21;15.60;;;3.55;;
34236;SDS011;20501;45.956;13.632;2024-02-26T12:18:22;6.38;;;3.03;;
34236;SDS011;20501;45.956;13.632;2024-02-26T12:21:03;5.65;;;2.95;;
34236;SDS011;20501;45.956;13.632;2024-02-26T12:23:29;11.32;;;2.95;;
34236;SDS011;20501;45.956;13.632;2024-02-26T12:26:01;5.07;;;3.33;;
34236;SDS011;20501;45.956;13.632;2024-02-26T12:28:30;5.30;;;3.05;;
34236;SDS011;20501;45.956;13.632;2024-02-26T12:30:55;9.13;;;3.15;;
34236;SDS011;20501;45.956;13.632;2024-02-26T12:33:24;6.93;;;2.50;;
34236;SDS011;20501;45.956;13.632;2024-02-26T12:38:16;5.00;;;2.40;;
34236;SDS011;20501;45.956;13.632;2024-02-26T12:40:42;4.55;;;3.00;;
34236;SDS011;20501;45.956;13.632;2024-02-26T12:43:07;4.65;;;2.55;;
34236;SDS011;20501;45.956;13.632;2024-02-26T12:45:39;11.90;;;2.78;;
34236;SDS011;20501;45.956;13.632;2024-02-26T12:48:06;8.82;;;2.55;;
34236;SDS011;20501;45.956;13.632;2024-02-26T12:50:32;7.35;;;3.40;;
34236;SDS011;20501;45.956;13.632;2024-02-26T12:52:58;9.07;;;2.35;;
34236;SDS011;20501;45.956;13.632;2024-02-26T12:55:24;8.77;;;2.72;;
34236;SDS011;20501;45.956;13.632;2024-02-26T12:57:51;5.53;;;3.05;;
34236;SDS011;20501;45.956;13.632;2024-02-26T13:00:18;7.65;;;3.30;;
34236;SDS011;20501;45.956;13.632;2024-02-26T13:02:47;8.30;;;2.65;;
34236;SDS011;20501;45.956;13.632;2024-02-26T13:05:14;10.02;;;3.33;;
34236;SDS011;20501;45.956;13.632;2024-02-26T13:07:41;11.60;;;3.28;;
34236;SDS011;20501;45.956;13.632;2024-02-26T13:10:08;8.52;;;3.40;;
34236;SDS011;20501;45.956;13.632;2024-02-26T13:12:34;5.90;;;3.00;;
34236;SDS011;20501;45.956;13.632;2024-02-26T13:15:00;6.45;;;2.75;;
34236;SDS011;20501;45.956;13.632;2024-02-26T13:17:31;5.43;;;3.03;;
34236;SDS011;20501;45.956;13.632;2024-02-26T13:19:57;5.35;;;2.58;;
34236;SDS011;20501;45.956;13.632;2024-02-26T13:22:22;4.13;;;2.28;;
34236;SDS011;20501;45.956;13.632;2024-02-26T13:24:55;6.65;;;2.78;;
34236;SDS011;20501;45.956;13.632;2024-02-26T13:27:22;7.28;;;2.85;;
34236;SDS011;20501;45.956;13.632;2024-02-26T13:29:48;6.97;;;3.20;;
34236;SDS011;20501;45.956;13.632;2024-02-26T13:32:14;7.00;;;3.97;;
34236;SDS011;20501;45.956;13.632;2024-02-26T13:34:39;17.48;;;4.25;;
34236;SDS011;20501;45.956;13.632;2024-02-26T13:37:05;5.63;;;3.03;;
34236;SDS011;20501;45.956;13.632;2024-02-26T13:39:30;11.55;;;3.15;;
34236;SDS011;20501;45.956;13.632;2024-02-26T13:41:56;4.97;;;2.58;;
34236;SDS011;20501;45.956;13.632;2024-02-26T13:44:22;8.88;;;2.53;;
34236;SDS011;20501;45.956;13.632;2024-02-26T13:49:14;6.65;;;2.50;;
34236;SDS011;20501;45.956;13.632;2024-02-26T13:51:40;8.23;;;2.58;;
34236;SDS011;20501;45.956;13.632;2024-02-26T13:54:06;7.20;;;2.92;;
34236;SDS011;20501;45.956;13.632;2024-02-26T13:56:32;5.78;;;2.72;;
34236;SDS011;20501;45.956;13.632;2024-02-26T13:58:58;7.25;;;2.60;;
34236;SDS011;20501;45.956;13.632;2024-02-26T14:01:24;7.32;;;2.47;;
34236;SDS011;20501;45.956;13.632;2024-02-26T14:03:49;6.38;;;2.60;;
34236;SDS011;20501;45.956;13.632;2024-02-26T14:06:15;7.38;;;2.42;;
34236;SDS011;20501;45.956;13.632;2024-02-26T14:08:41;5.90;;;2.50;;
34236;SDS011;20501;45.956;13.632;2024-02-26T14:11:06;9.40;;;2.38;;
34236;SDS011;20501;45.956;13.632;2024-02-26T14:13:32;5.90;;;2.40;;
34236;SDS011;20501;45.956;13.632;2024-02-26T14:15:57;5.80;;;2.25;;
34236;SDS011;20501;45.956;13.632;2024-02-26T14:18:23;5.65;;;2.53;;
34236;SDS011;20501;45.956;13.632;2024-02-26T14:20:49;8.97;;;3.70;;
34236;SDS011;20501;45.956;13.632;2024-02-26T14:23:14;6.63;;;2.30;;
34236;SDS011;20501;45.956;13.632;2024-02-26T14:25:40;9.23;;;2.45;;
34236;SDS011;20501;45.956;13.632;2024-02-26T14:28:05;7.07;;;3.30;;
34236;SDS011;20501;45.956;13.632;2024-02-26T14:30:31;7.50;;;2.72;;
34236;SDS011;20501;45.956;13.632;2024-02-26T14:32:57;18.50;;;13.15;;
34236;SDS011;20501;45.956;13.632;2024-02-26T14:35:23;6.18;;;3.22;;
34236;SDS011;20501;45.956;13.632;2024-02-26T14:37:48;7.35;;;3.20;;
34236;SDS011;20501;45.956;13.632;2024-02-26T14:40:15;7.28;;;2.60;;
34236;SDS011;20501;45.956;13.632;2024-02-26T14:42:41;6.78;;;2.92;;
34236;SDS011;20501;45.956;13.632;2024-02-26T14:45:07;9.45;;;2.08;;
34236;SDS011;20501;45.956;13.632;2024-02-26T14:47:37;3.58;;;2.00;;
34236;SDS011;20501;45.956;13.632;2024-02-26T14:50:03;4.50;;;2.25;;
34236;SDS011;20501;45.956;13.632;2024-02-26T14:52:29;3.17;;;1.92;;
34236;SDS011;20501;45.956;13.632;2024-02-26T14:54:55;5.18;;;2.45;;